< Cyclone 200108 2003 Season Cyclone 200302 >
Cyclone 200301 (UNNAMED)
General InformationDetailed Track InformationTrack Information on Google MapsList of All Images || ResourceGoogle EarthGE AnimationAtom FeedGeoJSON
Detalied Best Track Wind (Time Zone = UTC)
Year Month Day Hour Lat. Long. Wind (kt) Gust (kt) Direc. of Major Storm Axis Radius of Major Storm Axis (nm) Radius of Minor Storm Axis (nm) Direc. of Major Gale Axis Radius of Major Gale Axis (nm) Radius of Minor Gale Axis (nm) Image
2003 1 21 00 -12.4 125.3 20 30 symmetric - - symmetric - - Image
2003 1 21 06 -13.1 124.5 20 30 symmetric - - symmetric - - Image
2003 1 21 12 -13.6 123.6 20 30 symmetric - - symmetric - - Image
2003 1 21 18 -14.1 122.3 20 30 symmetric - - symmetric - - Image
2003 1 22 00 -14.4 121.0 20 30 symmetric - - symmetric - - Image
2003 1 22 06 -14.8 119.8 20 30 symmetric - - symmetric - - Image
2003 1 22 12 -15.2 119.2 20 30 symmetric - - symmetric - - Image
2003 1 22 18 -15.8 118.8 20 30 symmetric - - symmetric - - Image
2003 1 23 00 -16.3 118.5 20 35 symmetric - - symmetric - - Image
2003 1 23 06 -16.7 118.3 25 35 symmetric - - symmetric - - Image
2003 1 23 12 -17.0 118.1 25 35 symmetric - - symmetric - - Image
2003 1 23 18 -17.3 118.0 25 35 symmetric - - symmetric - - Image
2003 1 24 00 -17.7 118.0 25 35 symmetric - - symmetric - - Image
2003 1 24 06 -18.1 118.2 30 40 symmetric - - symmetric - - Image
2003 1 24 12 -18.5 118.4 30 40 symmetric - - symmetric - - Image
2003 1 24 15 -18.8 118.5 30 45 symmetric - - symmetric - - Image
2003 1 24 18 -19.3 118.6 35 50 symmetric - - symmetric - - Image
2003 1 24 21 -19.7 118.8 40 55 symmetric - - symmetric - - Image
2003 1 25 00 -20.0 118.9 45 60 symmetric - - symmetric - - Image
2003 1 25 03 -20.2 119.1 40 55 symmetric - - symmetric - - Image
2003 1 25 06 -20.5 119.3 30 45 symmetric - - symmetric - - Image
2003 1 25 09 -21.1 119.4 25 35 symmetric - - symmetric - - Image
2003 1 25 12 -21.8 119.4 25 35 symmetric - - symmetric - - Image
< Cyclone 200108 2003 Season Cyclone 200302 >

Help